createdAt,value
2023-04-28T00:00:58.250Z,97568.88
2023-04-28T00:03:26.511Z,97572.75
2023-04-28T00:05:53.821Z,97576.84
2023-04-28T00:08:22.690Z,97572.75
2023-04-28T00:10:49.713Z,97570.91
2023-04-28T00:13:16.750Z,97570.41
2023-04-28T00:15:43.753Z,97560.19
2023-04-28T00:18:10.823Z,97555.84
2023-04-28T00:20:37.844Z,97559.50
2023-04-28T00:23:04.854Z,97557.19
2023-04-28T00:25:32.010Z,97544.47
2023-04-28T00:27:59.020Z,97552.41
2023-04-28T00:30:26.196Z,97557.03
2023-04-28T00:32:53.585Z,97548.56
2023-04-28T00:35:20.798Z,97535.25
2023-04-28T00:37:48.322Z,97535.50
2023-04-28T00:40:15.555Z,97530.16
2023-04-28T00:42:42.660Z,97519.13
2023-04-28T00:45:10.142Z,97519.66
2023-04-28T00:47:38.514Z,97507.69
2023-04-28T00:50:06.820Z,97512.38
2023-04-28T00:52:33.971Z,97516.75
2023-04-28T00:55:01.097Z,97507.78
2023-04-28T00:57:28.316Z,97507.28
2023-04-28T00:59:55.527Z,97491.38
2023-04-28T01:02:23.297Z,97498.84
2023-04-28T01:04:51.450Z,97495.78
2023-04-28T01:07:22.671Z,97493.56
2023-04-28T01:09:49.750Z,97493.09
2023-04-28T01:12:21.081Z,97497.44
2023-04-28T01:14:52.404Z,97504.88
2023-04-28T01:17:19.550Z,97500.00
2023-04-28T01:19:47.226Z,97498.25
2023-04-28T01:22:16.729Z,97491.59
2023-04-28T01:24:44.610Z,97495.19
2023-04-28T01:27:13.932Z,97491.59
2023-04-28T01:29:42.264Z,97486.75
2023-04-28T01:32:09.255Z,97486.75
2023-04-28T01:34:36.251Z,97485.44
2023-04-28T01:37:06.218Z,97479.56
2023-04-28T01:39:33.475Z,97486.28
2023-04-28T01:42:01.029Z,97494.50
2023-04-28T01:44:28.636Z,97489.59
2023-04-28T01:46:56.019Z,97479.66
2023-04-28T01:49:23.149Z,97477.59
2023-04-28T01:51:50.343Z,97477.09
2023-04-28T01:54:17.492Z,97466.41
2023-04-28T01:56:44.658Z,97467.69
2023-04-28T01:59:15.392Z,97465.38
2023-04-28T02:01:43.561Z,97462.34
2023-04-28T02:04:12.778Z,97455.19
2023-04-28T02:06:41.483Z,97457.00
2023-04-28T02:09:08.545Z,97455.47
2023-04-28T02:11:35.593Z,97451.66
2023-04-28T02:14:03.356Z,97453.78
2023-04-28T02:16:30.796Z,97448.38
2023-04-28T02:18:57.876Z,97445.09
2023-04-28T02:21:28.870Z,97449.22
2023-04-28T02:23:56.320Z,97450.25
2023-04-28T02:26:24.776Z,97456.13
2023-04-28T02:28:52.454Z,97450.25
2023-04-28T02:31:19.573Z,97454.06
2023-04-28T02:33:46.859Z,97454.06
2023-04-28T02:36:14.421Z,97454.84
2023-04-28T02:38:41.946Z,97457.41
2023-04-28T02:41:14.812Z,97451.00
2023-04-28T02:43:42.506Z,97445.69
2023-04-28T02:46:10.001Z,97441.81
2023-04-28T02:48:39.361Z,97439.00
2023-04-28T02:51:08.148Z,97441.50
2023-04-28T02:53:36.105Z,97436.66
2023-04-28T02:56:05.289Z,97435.16
2023-04-28T02:58:33.703Z,97445.09
2023-04-28T03:01:01.711Z,97450.97
2023-04-28T03:03:28.955Z,97445.56
2023-04-28T03:05:57.250Z,97441.00
2023-04-28T03:08:24.399Z,97441.00
2023-04-28T03:10:51.429Z,97443.28
2023-04-28T03:13:20.941Z,97435.84
2023-04-28T03:15:48.802Z,97425.34
2023-04-28T03:18:19.730Z,97428.94
2023-04-28T03:20:46.729Z,97418.19
2023-04-28T03:23:13.954Z,97417.91
2023-04-28T03:25:41.486Z,97416.88
2023-04-28T03:28:08.547Z,97405.59
2023-04-28T03:30:36.528Z,97407.13
2023-04-28T03:33:06.137Z,97394.34
2023-04-28T03:35:33.303Z,97393.28
2023-04-28T03:38:00.248Z,97388.44
2023-04-28T03:40:28.208Z,97384.84
2023-04-28T03:43:15.265Z,97375.94
2023-04-28T03:45:59.298Z,97381.56
2023-04-28T03:48:26.869Z,97379.00
2023-04-28T03:50:54.498Z,97379.22
2023-04-28T03:53:26.253Z,97387.66
2023-04-28T03:55:53.744Z,97382.03
2023-04-28T03:58:21.396Z,97391.75
2023-04-28T04:00:48.409Z,97390.25
2023-04-28T04:03:15.603Z,97386.13
2023-04-28T04:05:44.441Z,97388.94
2023-04-28T04:08:12.639Z,97379.00
2023-04-28T04:10:39.611Z,97379.75
2023-04-28T04:13:08.703Z,97383.88
2023-04-28T04:15:36.009Z,97375.19
2023-04-28T04:18:04.397Z,97386.13
2023-04-28T04:20:47.009Z,97375.66
2023-04-28T04:23:14.873Z,97371.53
2023-04-28T04:25:42.965Z,97380.97
2023-04-28T04:28:10.891Z,97379.94
2023-04-28T04:30:38.024Z,97374.78
2023-04-28T04:33:05.310Z,97385.19
2023-04-28T04:35:33.906Z,97379.31
2023-04-28T04:38:01.665Z,97373.69
2023-04-28T04:40:29.144Z,97376.75
2023-04-28T04:42:56.786Z,97379.56
2023-04-28T04:45:27.936Z,97384.97
2023-04-28T04:47:56.470Z,97379.84
2023-04-28T04:50:24.710Z,97383.44
2023-04-28T04:52:54.808Z,97379.31
2023-04-28T04:55:23.737Z,97369.59
2023-04-28T04:57:52.687Z,97370.38
2023-04-28T05:00:28.544Z,97364.75
2023-04-28T05:02:56.363Z,97365.03
2023-04-28T05:05:24.016Z,97356.88
2023-04-28T05:08:03.995Z,97353.03
2023-04-28T05:10:33.069Z,97357.88
2023-04-28T05:13:01.032Z,97349.66
2023-04-28T05:15:28.365Z,97353.03
2023-04-28T05:18:14.466Z,97348.38
2023-04-28T05:20:42.303Z,97351.19
2023-04-28T05:23:09.820Z,97345.81
2023-04-28T05:25:37.732Z,97340.94
2023-04-28T05:28:07.857Z,97335.53
2023-04-28T05:30:35.099Z,97344.72
2023-04-28T05:33:03.242Z,97349.06
2023-04-28T05:35:31.831Z,97351.34
2023-04-28T05:37:59.681Z,97352.34
2023-04-28T05:40:27.123Z,97342.84
2023-04-28T05:42:55.695Z,97336.91
2023-04-28T05:45:22.785Z,97337.66
2023-04-28T05:47:50.373Z,97330.75
2023-04-28T05:50:19.015Z,97322.31
2023-04-28T05:52:46.075Z,97318.19
2023-04-28T05:55:13.749Z,97329.91
2023-04-28T05:57:51.894Z,97325.25
2023-04-28T06:00:22.083Z,97325.19
2023-04-28T06:02:50.087Z,97329.75
2023-04-28T06:05:18.351Z,97325.34
2023-04-28T06:07:49.715Z,97331.72
2023-04-28T06:10:17.318Z,97332.94
2023-04-28T06:12:44.534Z,97334.47
2023-04-28T06:15:11.964Z,97334.94
2023-04-28T06:17:39.867Z,97334.63
2023-04-28T06:20:08.317Z,97329.00
2023-04-28T06:22:35.379Z,97333.53
2023-04-28T06:25:02.371Z,97329.44
2023-04-28T06:27:49.733Z,97334.56
2023-04-28T06:30:20.717Z,97338.59
2023-04-28T06:32:48.018Z,97334.94
2023-04-28T06:35:16.826Z,97323.03
2023-04-28T06:37:44.221Z,97329.34
2023-04-28T06:40:11.940Z,97330.78
2023-04-28T06:42:43.347Z,97330.72
2023-04-28T06:45:12.539Z,97324.53
2023-04-28T06:47:40.956Z,97323.16
2023-04-28T06:50:10.063Z,97325.63
2023-04-28T06:52:39.907Z,97321.22
2023-04-28T06:55:11.001Z,97311.69
2023-04-28T06:57:42.681Z,97305.28
2023-04-28T07:00:10.905Z,97319.06
2023-04-28T07:02:38.355Z,97311.38
2023-04-28T07:05:05.880Z,97319.28
2023-04-28T07:07:34.201Z,97309.31
2023-04-28T07:10:04.236Z,97310.53
2023-04-28T07:12:31.341Z,97304.56
2023-04-28T07:15:10.624Z,97303.25
2023-04-28T07:17:38.524Z,97298.78
2023-04-28T07:20:07.185Z,97294.59
2023-04-28T07:22:35.185Z,97302.72
2023-04-28T07:25:02.291Z,97304.44
2023-04-28T07:27:29.321Z,97303.72
2023-04-28T07:29:59.104Z,97316.28
2023-04-28T07:32:26.315Z,97314.44
2023-04-28T07:34:54.392Z,97296.31
2023-04-28T07:37:21.364Z,97307.59
2023-04-28T07:39:48.929Z,97309.97
2023-04-28T07:42:15.997Z,97318.00
2023-04-28T07:44:43.000Z,97323.22
2023-04-28T07:47:11.056Z,97326.03
2023-04-28T07:49:38.921Z,97326.03
2023-04-28T07:52:05.951Z,97333.41
2023-04-28T07:54:33.214Z,97341.88
2023-04-28T07:57:01.651Z,97345.44
2023-04-28T07:59:28.853Z,97336.47
2023-04-28T08:01:58.549Z,97348.69
2023-04-28T08:04:26.054Z,97327.47
2023-04-28T08:06:54.068Z,97342.84
2023-04-28T08:09:21.083Z,97341.09
2023-04-28T08:11:47.962Z,97342.75
2023-04-28T08:14:15.063Z,97350.00
2023-04-28T08:16:42.314Z,97353.34
2023-04-28T08:19:10.611Z,97346.72
2023-04-28T08:21:37.649Z,97345.22
2023-04-28T08:24:05.064Z,97348.56
2023-04-28T08:26:32.880Z,97351.63
2023-04-28T08:29:00.329Z,97343.69
2023-04-28T08:31:27.327Z,97343.25
2023-04-28T08:33:55.612Z,97345.06
2023-04-28T08:36:23.930Z,97353.50
2023-04-28T08:38:51.035Z,97352.22
2023-04-28T08:41:19.588Z,97345.28
2023-04-28T08:43:46.736Z,97332.72
2023-04-28T08:46:15.044Z,97347.34
2023-04-28T08:48:45.333Z,97333.34
2023-04-28T08:51:29.027Z,97343.72
2023-04-28T08:54:29.368Z,97332.44
2023-04-28T08:56:46.191Z,97332.00
2023-04-28T08:59:13.571Z,97327.97
2023-04-28T09:01:40.612Z,97319.13
2023-04-28T09:04:09.024Z,97316.50
2023-04-28T09:06:38.828Z,97315.50
2023-04-28T09:09:24.738Z,97310.84
2023-04-28T09:12:16.668Z,97320.84
2023-04-28T09:14:44.108Z,97321.50
2023-04-28T09:17:13.463Z,97321.50
2023-04-28T09:19:43.192Z,97323.03
2023-04-28T09:22:25.684Z,97326.06
2023-04-28T09:24:55.581Z,97320.88
2023-04-28T09:27:28.429Z,97327.44
2023-04-28T09:29:55.747Z,97324.84
2023-04-28T09:32:24.096Z,97314.25
2023-04-28T09:34:57.235Z,97317.75
2023-04-28T09:37:31.647Z,97308.97
2023-04-28T09:40:06.019Z,97290.28
2023-04-28T09:42:46.896Z,97279.56
2023-04-28T09:45:15.734Z,97271.19
2023-04-28T09:47:45.304Z,97247.44
2023-04-28T09:50:17.899Z,97218.81
2023-04-28T09:52:57.012Z,97191.88
2023-04-28T09:55:24.699Z,97186.88
2023-04-28T09:57:55.803Z,97257.69
2023-04-28T10:00:23.645Z,97274.13
2023-04-28T10:02:52.937Z,97282.13
2023-04-28T10:05:23.785Z,97275.88
2023-04-28T10:07:54.268Z,97283.91
2023-04-28T10:10:22.030Z,97291.75
2023-04-28T10:12:49.120Z,97285.50
2023-04-28T10:15:17.616Z,97281.84
2023-04-28T10:17:48.334Z,97279.22
2023-04-28T10:20:16.994Z,97289.81
2023-04-28T10:22:59.588Z,97291.00
2023-04-28T10:25:30.205Z,97288.00
2023-04-28T10:27:58.860Z,97283.88
2023-04-28T10:30:30.293Z,97283.88
2023-04-28T10:33:06.914Z,97283.94
2023-04-28T10:35:36.542Z,97286.84
2023-04-28T10:38:09.894Z,97279.91
2023-04-28T10:41:03.591Z,97284.19
2023-04-28T10:43:36.123Z,97281.28
2023-04-28T10:46:06.505Z,97276.72
2023-04-28T10:48:36.644Z,97264.16
2023-04-28T10:51:04.776Z,97269.78
2023-04-28T10:53:44.628Z,97270.44
2023-04-28T10:56:25.657Z,97262.66
2023-04-28T10:58:57.314Z,97266.59
2023-04-28T11:01:26.172Z,97258.25
2023-04-28T11:04:05.370Z,97252.03
2023-04-28T11:06:35.786Z,97259.22
2023-04-28T11:09:35.473Z,97248.38
2023-04-28T11:12:08.703Z,97251.75
2023-04-28T11:14:37.394Z,97242.97
2023-04-28T11:17:05.474Z,97242.72
2023-04-28T11:19:34.431Z,97235.78
2023-04-28T11:22:03.813Z,97238.63
2023-04-28T11:24:33.268Z,97232.78
2023-04-28T11:27:01.235Z,97235.38
2023-04-28T11:29:33.828Z,97240.13
2023-04-28T11:32:00.964Z,97229.38
2023-04-28T11:34:30.980Z,97220.16
2023-04-28T11:36:59.893Z,97224.50
2023-04-28T11:39:34.232Z,97222.66
2023-04-28T11:42:11.082Z,97216.59
2023-04-28T11:44:38.347Z,97225.03
2023-04-28T11:47:07.631Z,97213.56
2023-04-28T11:49:47.916Z,97209.13
2023-04-28T11:52:14.884Z,97221.16
2023-04-28T11:54:43.821Z,97214.41
2023-04-28T11:57:23.704Z,97215.06
2023-04-28T11:59:52.065Z,97219.28
2023-04-28T12:02:31.630Z,97220.72
2023-04-28T12:05:07.873Z,97219.94
2023-04-28T12:07:45.823Z,97214.63
2023-04-28T12:10:19.018Z,97218.41
2023-04-28T12:12:52.413Z,97216.47
2023-04-28T12:15:22.760Z,97209.88
2023-04-28T12:17:52.603Z,97196.94
2023-04-28T12:20:37.564Z,97203.97
2023-04-28T12:23:06.804Z,97205.50
2023-04-28T12:25:35.504Z,97210.63
2023-04-28T12:28:08.618Z,97208.22
2023-04-28T12:30:58.819Z,97202.78
2023-04-28T12:33:29.206Z,97199.94
2023-04-28T12:35:58.132Z,97207.13
2023-04-28T12:38:25.431Z,97193.97
2023-04-28T12:40:53.994Z,97188.88
2023-04-28T12:43:23.661Z,97200.38
2023-04-28T12:45:53.698Z,97196.47
2023-04-28T12:48:21.385Z,97200.25
2023-04-28T12:50:48.390Z,97206.66
2023-04-28T12:53:15.705Z,97206.88
2023-04-28T12:55:42.776Z,97206.00
2023-04-28T12:58:10.040Z,97201.88
2023-04-28T13:00:36.975Z,97192.75
2023-04-28T13:03:04.154Z,97192.31
2023-04-28T13:05:33.015Z,97195.38
2023-04-28T13:08:00.704Z,97188.97
2023-04-28T13:10:27.847Z,97189.72
2023-04-28T13:12:54.852Z,97188.00
2023-04-28T13:15:21.818Z,97176.72
2023-04-28T13:17:50.027Z,97179.13
2023-04-28T13:20:18.049Z,97178.00
2023-04-28T13:22:45.630Z,97172.38
2023-04-28T13:25:12.621Z,97166.72
2023-04-28T13:27:42.696Z,97172.38
2023-04-28T13:30:11.304Z,97170.84
2023-04-28T13:32:38.455Z,97176.50
2023-04-28T13:35:07.456Z,97170.31
2023-04-28T13:37:35.693Z,97167.91
2023-04-28T13:40:04.552Z,97163.22
2023-04-28T13:42:31.633Z,97172.09
2023-04-28T13:44:58.484Z,97170.28
2023-04-28T13:47:26.990Z,97177.41
2023-04-28T13:49:53.867Z,97180.03
2023-04-28T13:52:21.193Z,97175.16
2023-04-28T13:54:48.600Z,97163.88
2023-04-28T13:57:16.022Z,97168.75
2023-04-28T13:59:43.364Z,97160.81
2023-04-28T14:02:11.890Z,97168.53
2023-04-28T14:04:39.085Z,97162.16
2023-04-28T14:07:06.166Z,97164.97
2023-04-28T14:09:33.668Z,97161.69
2023-04-28T14:12:00.609Z,97164.63
2023-04-28T14:14:27.453Z,97169.50
2023-04-28T14:16:54.854Z,97156.69
2023-04-28T14:19:22.836Z,97162.56
2023-04-28T14:21:49.924Z,97149.00
2023-04-28T14:24:16.763Z,97152.22
2023-04-28T14:26:44.897Z,97148.09
2023-04-28T14:29:12.055Z,97152.22
2023-04-28T14:31:39.923Z,97149.94
2023-04-28T14:34:07.506Z,97162.22
2023-04-28T14:36:34.650Z,97158.28
2023-04-28T14:39:01.969Z,97146.25
2023-04-28T14:41:29.100Z,97152.88
2023-04-28T14:43:56.947Z,97145.56
2023-04-28T14:46:24.489Z,97140.47
2023-04-28T14:48:52.682Z,97134.47
2023-04-28T14:51:19.605Z,97127.94
2023-04-28T14:53:47.431Z,97118.72
2023-04-28T14:56:19.014Z,97124.34
2023-04-28T14:58:47.777Z,97114.03
2023-04-28T15:01:15.031Z,97112.72
2023-04-28T15:03:42.978Z,97121.31
2023-04-28T15:06:10.957Z,97116.25
2023-04-28T15:08:38.361Z,97116.47
2023-04-28T15:11:05.453Z,97114.41
2023-04-28T15:13:32.494Z,97110.06
2023-04-28T15:15:59.517Z,97111.72
2023-04-28T15:18:26.440Z,97128.84
2023-04-28T15:20:53.740Z,97129.22
2023-04-28T15:23:20.740Z,97125.75
2023-04-28T15:25:50.124Z,97122.72
2023-04-28T15:28:17.367Z,97117.06
2023-04-28T15:30:44.287Z,97124.41
2023-04-28T15:33:17.759Z,97123.13
2023-04-28T15:35:45.000Z,97122.34
2023-04-28T15:38:11.917Z,97132.47
2023-04-28T15:40:40.778Z,97126.84
2023-04-28T15:43:08.272Z,97119.47
2023-04-28T15:45:35.294Z,97119.25
2023-04-28T15:48:02.466Z,97110.66
2023-04-28T15:50:30.469Z,97117.81
2023-04-28T15:52:58.431Z,97115.53
2023-04-28T15:55:25.990Z,97114.03
2023-04-28T15:57:53.133Z,97110.31
2023-04-28T16:00:20.192Z,97107.69
2023-04-28T16:02:47.313Z,97086.47
2023-04-28T16:05:14.881Z,97116.81
2023-04-28T16:07:42.449Z,97114.19
2023-04-28T16:10:14.805Z,97116.66
2023-04-28T16:12:42.703Z,97112.00
2023-04-28T16:15:11.559Z,97111.25
2023-04-28T16:17:40.576Z,97112.59
2023-04-28T16:20:10.320Z,97110.19
2023-04-28T16:22:37.942Z,97108.69
2023-04-28T16:25:05.604Z,97102.47
2023-04-28T16:27:33.167Z,97099.91
2023-04-28T16:30:01.924Z,97112.59
2023-04-28T16:32:29.213Z,97106.38
2023-04-28T16:34:57.683Z,97108.16
2023-04-28T16:37:25.636Z,97109.09
2023-04-28T16:39:52.933Z,97102.75
2023-04-28T16:42:22.735Z,97104.47
2023-04-28T16:44:52.755Z,97102.25
2023-04-28T16:47:20.575Z,97104.91
2023-04-28T16:49:48.307Z,97100.22
2023-04-28T16:52:18.934Z,97088.69
2023-04-28T16:54:46.349Z,97090.63
2023-04-28T16:57:13.362Z,97093.44
2023-04-28T16:59:40.358Z,97096.28
2023-04-28T17:02:07.987Z,97100.47
2023-04-28T17:04:35.427Z,97102.16
2023-04-28T17:07:05.641Z,97097.47
2023-04-28T17:09:34.404Z,97100.69
2023-04-28T17:12:01.443Z,97102.19
2023-04-28T17:14:28.759Z,97092.59
2023-04-28T17:16:56.122Z,97107.72
2023-04-28T17:19:23.276Z,97095.63
2023-04-28T17:21:52.954Z,97094.50
2023-04-28T17:24:19.855Z,97101.13
2023-04-28T17:26:47.310Z,97094.72
2023-04-28T17:29:14.824Z,97102.81
2023-04-28T17:31:41.916Z,97102.03
2023-04-28T17:34:08.973Z,97108.59
2023-04-28T17:36:36.011Z,97104.25
2023-04-28T17:39:05.061Z,97109.91
2023-04-28T17:41:32.459Z,97102.53
2023-04-28T17:43:59.739Z,97093.69
2023-04-28T17:46:27.822Z,97103.69
2023-04-28T17:48:54.873Z,97098.94
2023-04-28T17:51:21.867Z,97107.25
2023-04-28T17:53:49.054Z,97108.59
2023-04-28T17:56:16.963Z,97106.91
2023-04-28T17:58:44.025Z,97097.06
2023-04-28T18:01:10.926Z,97095.91
2023-04-28T18:03:39.196Z,97108.13
2023-04-28T18:06:08.318Z,97101.16
2023-04-28T18:08:37.351Z,97097.19
2023-04-28T18:11:05.182Z,97104.50
2023-04-28T18:13:33.580Z,97103.56
2023-04-28T18:16:01.221Z,97102.25
2023-04-28T18:18:30.283Z,97098.84
2023-04-28T18:21:02.502Z,97099.59
2023-04-28T18:23:30.771Z,97115.25
2023-04-28T18:25:59.270Z,97119.22
2023-04-28T18:28:26.316Z,97112.03
2023-04-28T18:30:54.385Z,97120.91
2023-04-28T18:33:23.387Z,97120.91
2023-04-28T18:35:59.503Z,97123.75
2023-04-28T18:38:28.019Z,97119.22
2023-04-28T18:40:56.214Z,97125.97
2023-04-28T18:43:26.881Z,97122.72
2023-04-28T18:45:54.391Z,97133.09
2023-04-28T18:48:21.963Z,97135.72
2023-04-28T18:50:49.176Z,97133.22
2023-04-28T18:53:16.152Z,97128.88
2023-04-28T18:55:45.468Z,97128.69
2023-04-28T18:58:12.466Z,97124.34
2023-04-28T19:00:39.425Z,97129.66
2023-04-28T19:03:06.963Z,97127.38
2023-04-28T19:05:34.656Z,97134.53
2023-04-28T19:08:01.634Z,97134.53
2023-04-28T19:10:28.547Z,97134.53
2023-04-28T19:12:56.281Z,97125.47
2023-04-28T19:15:23.281Z,97134.13
2023-04-28T19:17:51.497Z,97126.56
2023-04-28T19:20:18.982Z,97137.03
2023-04-28T19:22:49.520Z,97131.34
2023-04-28T19:25:19.125Z,97127.97
2023-04-28T19:27:46.273Z,97132.88
2023-04-28T19:30:15.146Z,97141.13
2023-04-28T19:32:42.459Z,97143.75
2023-04-28T19:35:10.439Z,97135.81
2023-04-28T19:37:37.913Z,97138.84
2023-04-28T19:40:05.397Z,97146.78
2023-04-28T19:42:38.885Z,97148.66
2023-04-28T19:45:06.527Z,97151.88
2023-04-28T19:47:35.117Z,97151.88
2023-04-28T19:50:03.851Z,97154.72
2023-04-28T19:52:31.152Z,97154.50
2023-04-28T19:54:58.092Z,97150.16
2023-04-28T19:57:27.853Z,97150.91
2023-04-28T19:59:55.212Z,97154.72
2023-04-28T20:02:22.513Z,97146.00
2023-04-28T20:04:50.076Z,97155.78
2023-04-28T20:07:18.565Z,97147.88
2023-04-28T20:09:46.943Z,97158.22
2023-04-28T20:12:15.383Z,97149.31
2023-04-28T20:14:45.019Z,97160.63
2023-04-28T20:17:12.005Z,97152.16
2023-04-28T20:19:39.106Z,97154.97
2023-04-28T20:25:16.144Z,97159.13
2023-04-28T20:27:46.236Z,97169.88
2023-04-28T20:30:14.436Z,97163.44
2023-04-28T20:32:41.711Z,97160.63
2023-04-28T20:35:09.465Z,97149.31
2023-04-28T20:37:36.800Z,97147.59
2023-04-28T20:40:05.278Z,97153.81
2023-04-28T20:42:33.476Z,97160.56
2023-04-28T20:45:00.480Z,97161.66
2023-04-28T20:47:27.793Z,97166.03
2023-04-28T20:49:55.931Z,97158.50
2023-04-28T20:52:23.495Z,97158.69
2023-04-28T20:54:51.774Z,97162.50
2023-04-28T20:57:18.886Z,97157.59
2023-04-28T20:59:46.364Z,97159.13
2023-04-28T21:02:13.877Z,97163.66
2023-04-28T21:04:41.033Z,97163.44
2023-04-28T21:07:07.947Z,97153.69
2023-04-28T21:09:36.070Z,97156.72
2023-04-28T21:12:03.159Z,97150.50
2023-04-28T21:14:30.369Z,97143.53
2023-04-28T21:16:57.463Z,97150.16
2023-04-28T21:19:24.416Z,97145.81
2023-04-28T21:21:51.317Z,97162.22
2023-04-28T21:24:18.251Z,97162.22
2023-04-28T21:26:45.213Z,97160.16
2023-04-28T21:29:12.395Z,97155.78
2023-04-28T21:31:39.362Z,97159.38
2023-04-28T21:34:06.755Z,97163.53
2023-04-28T21:36:34.629Z,97142.59
2023-04-28T21:39:02.071Z,97148.44
2023-04-28T21:41:29.017Z,97158.78
2023-04-28T21:43:56.171Z,97158.78
2023-04-28T21:46:23.077Z,97152.38
2023-04-28T21:48:49.943Z,97146.19
2023-04-28T21:51:17.038Z,97149.72
2023-04-28T21:53:43.942Z,97147.13
2023-04-28T21:56:10.900Z,97138.44
2023-04-28T21:58:37.784Z,97138.03
2023-04-28T22:01:05.559Z,97144.78
2023-04-28T22:03:35.570Z,97147.41
2023-04-28T22:06:03.290Z,97141.31
2023-04-28T22:08:31.074Z,97137.91
2023-04-28T22:10:58.385Z,97132.44
2023-04-28T22:13:25.367Z,97134.50
2023-04-28T22:15:52.696Z,97136.38
2023-04-28T22:18:19.740Z,97141.59
2023-04-28T22:20:47.066Z,97133.66
2023-04-28T22:23:14.184Z,97127.59
2023-04-28T22:25:41.333Z,97134.69
2023-04-28T22:28:08.221Z,97137.72
2023-04-28T22:30:35.090Z,97148.66
2023-04-28T22:33:02.118Z,97149.44
2023-04-28T22:35:29.000Z,97144.00
2023-04-28T22:37:56.037Z,97144.19
2023-04-28T22:40:23.048Z,97141.38
2023-04-28T22:42:49.896Z,97148.78
2023-04-28T22:45:16.852Z,97140.50
2023-04-28T22:47:43.733Z,97141.28
2023-04-28T22:50:11.987Z,97142.25
2023-04-28T22:52:39.217Z,97146.78
2023-04-28T22:55:06.826Z,97143.41
2023-04-28T22:57:33.924Z,97131.56
2023-04-28T23:00:00.866Z,97125.38
2023-04-28T23:02:28.164Z,97123.31
2023-04-28T23:04:55.282Z,97125.00
2023-04-28T23:07:22.305Z,97129.34
2023-04-28T23:09:49.438Z,97126.72
2023-04-28T23:12:16.683Z,97117.50
2023-04-28T23:14:43.756Z,97116.75
2023-04-28T23:17:11.031Z,97114.59
2023-04-28T23:19:39.511Z,97112.88
2023-04-28T23:22:07.926Z,97107.44
2023-04-28T23:24:37.357Z,97103.31
2023-04-28T23:27:04.930Z,97110.25
2023-04-28T23:29:32.750Z,97109.38
2023-04-28T23:31:59.797Z,97119.38
2023-04-28T23:34:26.975Z,97102.63
2023-04-28T23:36:53.924Z,97099.22
2023-04-28T23:39:21.089Z,97104.13
2023-04-28T23:41:48.156Z,97103.03
2023-04-28T23:44:15.150Z,97094.75
2023-04-28T23:46:42.043Z,97090.63
2023-04-28T23:49:09.077Z,97103.44
2023-04-28T23:51:36.235Z,97109.84
2023-04-28T23:54:03.878Z,97107.56
2023-04-28T23:56:31.634Z,97103.03
2023-04-28T23:58:58.689Z,97105.00
